createdAt,value
2022-12-13T00:03:40.178Z,6.88
2022-12-13T00:07:57.318Z,9.00
2022-12-13T00:12:14.189Z,7.68
2022-12-13T00:16:31.372Z,5.65
2022-12-13T00:20:48.267Z,6.13
2022-12-13T00:25:05.748Z,3.45
2022-12-13T00:29:22.617Z,5.63
2022-12-13T00:33:40.131Z,5.53
2022-12-13T00:37:56.954Z,6.18
2022-12-13T00:42:14.009Z,6.00
2022-12-13T00:46:32.398Z,5.28
2022-12-13T00:50:49.769Z,4.20
2022-12-13T00:55:07.234Z,6.13
2022-12-13T00:59:24.275Z,6.05
2022-12-13T01:03:42.303Z,4.88
2022-12-13T01:07:59.415Z,6.05
2022-12-13T01:12:16.467Z,8.00
2022-12-13T01:16:33.608Z,7.07
2022-12-13T01:21:01.497Z,6.88
2022-12-13T01:25:18.354Z,10.48
2022-12-13T01:29:35.799Z,5.93
2022-12-13T01:33:52.721Z,10.05
2022-12-13T01:38:15.748Z,5.85
2022-12-13T01:42:33.094Z,6.00
2022-12-13T01:46:51.220Z,8.23
2022-12-13T01:51:11.912Z,7.15
2022-12-13T01:55:34.735Z,5.47
2022-12-13T01:59:58.820Z,6.10
2022-12-13T02:04:21.277Z,5.88
2022-12-13T02:08:40.584Z,4.38
2022-12-13T02:12:58.973Z,8.73
2022-12-13T02:17:52.984Z,4.65
2022-12-13T02:23:21.254Z,4.13
2022-12-13T02:33:05.343Z,4.95
2022-12-13T02:37:32.997Z,4.35
2022-12-13T02:42:22.345Z,4.87
2022-12-13T02:46:49.489Z,5.03
2022-12-13T02:51:09.453Z,8.55
2022-12-13T02:55:28.253Z,4.47
2022-12-13T02:59:45.562Z,5.70
2022-12-13T03:04:32.214Z,5.85
2022-12-13T03:09:31.766Z,4.32
2022-12-13T03:13:55.346Z,4.93
2022-12-13T03:18:20.382Z,4.68
2022-12-13T03:22:37.285Z,6.53
2022-12-13T03:26:54.533Z,5.50
2022-12-13T03:31:11.698Z,5.70
2022-12-13T03:35:34.668Z,3.58
2022-12-13T03:40:02.161Z,4.35
2022-12-13T03:44:19.058Z,4.53
2022-12-13T03:48:36.770Z,5.35
2022-12-13T03:53:00.072Z,6.23
2022-12-13T03:57:17.332Z,6.28
2022-12-13T04:01:34.427Z,3.83
2022-12-13T04:05:51.320Z,4.90
2022-12-13T04:10:26.395Z,6.22
2022-12-13T04:14:43.670Z,4.65
2022-12-13T04:19:00.730Z,5.82
2022-12-13T04:23:17.634Z,5.47
2022-12-13T04:27:34.838Z,4.90
2022-12-13T04:31:51.687Z,7.47
2022-12-13T04:36:08.966Z,4.45
2022-12-13T04:40:25.822Z,4.97
2022-12-13T04:44:46.027Z,6.80
2022-12-13T04:49:03.476Z,5.07
2022-12-13T04:53:20.522Z,6.53
2022-12-13T04:57:37.551Z,6.35
2022-12-13T05:01:54.668Z,5.00
2022-12-13T05:06:26.215Z,6.72
2022-12-13T05:10:44.964Z,5.82
2022-12-13T05:15:01.809Z,6.22
2022-12-13T05:19:19.218Z,7.47
2022-12-13T05:23:36.957Z,7.22
2022-12-13T05:27:56.880Z,10.47
2022-12-13T05:32:14.345Z,7.15
2022-12-13T05:36:31.268Z,11.00
2022-12-13T05:40:48.348Z,8.18
2022-12-13T05:45:08.203Z,10.60
2022-12-13T05:49:25.282Z,7.07
2022-12-13T05:53:42.690Z,6.70
2022-12-13T05:58:02.385Z,7.00
2022-12-13T06:02:21.836Z,8.15
2022-12-13T06:06:39.203Z,7.63
2022-12-13T06:11:11.116Z,7.80
2022-12-13T06:15:29.223Z,7.22
2022-12-13T06:19:52.327Z,6.03
2022-12-13T06:24:09.645Z,7.40
2022-12-13T06:28:26.531Z,7.72
2022-12-13T06:32:44.054Z,9.85
2022-12-13T06:37:02.096Z,9.18
2022-12-13T06:41:19.190Z,12.48
2022-12-13T06:45:40.615Z,12.02
2022-12-13T06:49:57.607Z,9.57
2022-12-13T06:54:22.542Z,15.18
2022-12-13T06:58:42.462Z,18.58
2022-12-13T07:02:59.400Z,13.90
2022-12-13T07:07:16.678Z,17.50
2022-12-13T07:11:33.710Z,22.38
2022-12-13T07:15:50.931Z,12.27
2022-12-13T07:20:09.311Z,17.15
2022-12-13T07:24:26.364Z,17.75
2022-12-13T07:28:43.381Z,16.27
2022-12-13T07:45:46.714Z,37.22
2022-12-13T07:50:03.755Z,68.07
2022-12-13T07:54:20.841Z,78.82
2022-12-13T07:58:39.083Z,47.72
2022-12-13T08:02:56.227Z,24.05
2022-12-13T08:07:13.198Z,19.38
2022-12-13T08:11:30.065Z,21.80
2022-12-13T08:15:47.154Z,15.65
2022-12-13T08:20:05.450Z,17.77
2022-12-13T08:24:24.529Z,27.27
2022-12-13T08:28:41.362Z,10.32
2022-12-13T08:32:58.375Z,10.38
2022-12-13T08:37:15.764Z,9.38
2022-12-13T08:41:37.409Z,11.80
2022-12-13T08:45:56.010Z,15.30
2022-12-13T08:50:18.424Z,9.52
2022-12-13T08:54:35.291Z,14.55
2022-12-13T08:58:52.303Z,10.68
2022-12-13T09:03:10.048Z,9.20
2022-12-13T09:07:27.722Z,11.82
2022-12-13T09:11:44.522Z,6.45
2022-12-13T09:16:14.461Z,9.07
2022-12-13T09:20:42.812Z,9.00
2022-12-13T09:25:02.579Z,10.75
2022-12-13T09:29:19.929Z,9.82
2022-12-13T09:33:40.895Z,11.40
2022-12-13T09:37:58.422Z,10.25
2022-12-13T09:42:30.560Z,6.55
2022-12-13T09:46:50.890Z,10.85
2022-12-13T09:51:18.219Z,6.22
2022-12-13T09:55:50.527Z,7.88
2022-12-13T10:00:12.582Z,6.43
2022-12-13T10:04:29.822Z,6.38
2022-12-13T10:08:58.660Z,8.45
2022-12-13T10:13:15.995Z,23.75
2022-12-13T10:17:38.588Z,9.02
2022-12-13T10:21:56.038Z,27.25
2022-12-13T10:26:24.547Z,28.85
2022-12-13T10:30:46.191Z,13.10
2022-12-13T10:35:30.505Z,15.65
2022-12-13T10:39:47.512Z,46.70
2022-12-13T10:44:25.451Z,29.25
2022-12-13T10:48:51.883Z,16.27
2022-12-13T10:53:18.199Z,35.45
2022-12-13T10:57:39.914Z,8.68
2022-12-13T11:01:56.913Z,14.80
2022-12-13T11:06:18.265Z,13.73
2022-12-13T11:10:35.213Z,12.70
2022-12-13T11:15:01.891Z,11.35
2022-12-13T11:19:23.596Z,11.23
2022-12-13T11:23:46.181Z,11.10
2022-12-13T11:28:28.510Z,9.63
2022-12-13T11:33:20.867Z,13.57
2022-12-13T11:37:58.440Z,10.15
2022-12-13T11:42:41.354Z,11.83
2022-12-13T11:47:00.990Z,12.10
2022-12-13T11:51:27.193Z,9.25
2022-12-13T11:55:59.552Z,12.77
2022-12-13T12:00:48.437Z,16.63
2022-12-13T12:05:17.363Z,13.55
2022-12-13T12:09:36.586Z,14.52
2022-12-13T12:14:01.022Z,25.98
2022-12-13T12:18:18.097Z,27.73
2022-12-13T12:22:53.049Z,20.42
2022-12-13T12:27:47.837Z,18.75
2022-12-13T12:32:14.256Z,15.07
2022-12-13T12:36:46.859Z,12.90
2022-12-13T12:41:45.280Z,16.67
2022-12-13T12:46:22.929Z,18.58
2022-12-13T12:51:00.487Z,16.40
2022-12-13T12:55:49.415Z,14.60
2022-12-13T13:00:16.064Z,15.00
2022-12-13T13:04:44.575Z,28.92
2022-12-13T13:13:48.193Z,13.57
2022-12-13T13:18:05.230Z,13.48
2022-12-13T13:22:43.369Z,11.70
2022-12-13T13:27:08.849Z,16.15
2022-12-13T13:31:25.929Z,13.02
2022-12-13T13:35:42.772Z,18.48
2022-12-13T13:40:02.746Z,15.10
2022-12-13T13:44:54.483Z,12.65
2022-12-13T13:49:12.860Z,15.93
2022-12-13T13:53:58.895Z,13.52
2022-12-13T13:58:43.606Z,13.98
2022-12-13T14:03:38.482Z,12.93
2022-12-13T14:09:01.561Z,18.75
2022-12-13T14:13:50.234Z,16.77
2022-12-13T14:18:38.638Z,21.40
2022-12-13T14:23:14.696Z,27.50
2022-12-13T14:27:49.256Z,19.00
2022-12-13T14:32:27.688Z,16.73
2022-12-13T14:36:49.664Z,21.92
2022-12-13T14:41:08.707Z,41.75
2022-12-13T14:45:36.958Z,18.35
2022-12-13T14:49:55.666Z,23.55
2022-12-13T14:54:25.868Z,30.92
2022-12-13T14:58:58.124Z,34.17
2022-12-13T15:03:27.890Z,27.52
2022-12-13T15:07:45.317Z,30.80
2022-12-13T15:12:23.984Z,43.95
2022-12-13T15:16:51.483Z,52.60
2022-12-13T15:21:24.795Z,49.15
2022-12-13T15:25:42.488Z,28.73
2022-12-13T15:29:59.547Z,24.10
2022-12-13T15:34:37.408Z,26.60
2022-12-13T15:38:54.876Z,64.50
2022-12-13T15:43:18.391Z,70.22
2022-12-13T15:47:35.339Z,117.15
2022-12-13T15:52:28.678Z,85.78
2022-12-13T15:57:15.352Z,62.50
2022-12-13T16:01:36.187Z,53.08
2022-12-13T16:05:56.584Z,61.42
2022-12-13T16:10:19.626Z,46.20
2022-12-13T16:14:49.370Z,47.30
2022-12-13T16:19:17.772Z,66.10
2022-12-13T16:23:35.052Z,64.25
2022-12-13T16:27:52.143Z,39.38
2022-12-13T16:32:10.780Z,37.40
2022-12-13T16:36:27.886Z,116.47
2022-12-13T16:40:53.946Z,71.38
2022-12-13T16:49:51.239Z,67.47
2022-12-13T16:54:08.187Z,54.75
2022-12-13T16:58:26.059Z,47.00
2022-12-13T17:02:43.042Z,39.15
2022-12-13T17:06:59.995Z,40.45
2022-12-13T17:11:18.558Z,46.80
2022-12-13T17:15:36.661Z,63.95
2022-12-13T17:19:54.709Z,43.53
2022-12-13T17:24:12.716Z,39.08
2022-12-13T17:28:29.717Z,38.70
2022-12-13T17:32:46.647Z,80.45
2022-12-13T17:37:09.989Z,34.13
2022-12-13T17:41:27.368Z,46.15
2022-12-13T17:45:44.443Z,53.42
2022-12-13T17:50:01.428Z,48.03
2022-12-13T17:54:18.933Z,60.40
2022-12-13T17:58:35.935Z,77.60
2022-12-13T18:02:55.166Z,54.90
2022-12-13T18:07:13.296Z,66.25
2022-12-13T18:11:33.415Z,78.88
2022-12-13T18:15:51.976Z,45.55
2022-12-13T18:20:09.893Z,48.90
2022-12-13T18:24:27.826Z,71.60
2022-12-13T18:28:45.967Z,69.40
2022-12-13T18:33:03.893Z,44.38
2022-12-13T18:37:21.118Z,50.13
2022-12-13T18:41:38.228Z,53.58
2022-12-13T18:45:55.550Z,67.60
2022-12-13T18:50:12.604Z,64.45
2022-12-13T18:54:30.006Z,79.38
2022-12-13T18:58:50.999Z,73.55
2022-12-13T19:03:08.294Z,36.72
2022-12-13T19:07:25.478Z,28.98
2022-12-13T19:11:42.750Z,27.45
2022-12-13T19:16:08.122Z,37.72
2022-12-13T19:20:26.982Z,43.45
2022-12-13T19:24:44.207Z,63.47
2022-12-13T19:29:03.041Z,48.45
2022-12-13T19:33:20.368Z,40.13
2022-12-13T19:37:38.046Z,40.03
2022-12-13T19:41:55.333Z,41.80
2022-12-13T19:46:12.476Z,58.55
2022-12-13T19:50:30.763Z,52.08
2022-12-13T19:54:47.942Z,47.40
2022-12-13T19:59:05.489Z,38.22
2022-12-13T20:03:23.383Z,46.28
2022-12-13T20:07:40.797Z,45.63
2022-12-13T20:11:58.020Z,44.80
2022-12-13T20:16:18.668Z,58.65
2022-12-13T20:21:02.352Z,51.75
2022-12-13T20:25:13.007Z,44.53
2022-12-13T20:29:30.078Z,50.83
2022-12-13T20:33:47.561Z,44.47
2022-12-13T20:38:04.742Z,40.38
2022-12-13T20:42:22.195Z,42.50
2022-12-13T20:46:39.700Z,38.42
2022-12-13T20:51:05.351Z,38.05
2022-12-13T20:55:22.466Z,46.35
2022-12-13T20:59:39.578Z,39.88
2022-12-13T21:04:00.564Z,40.17
2022-12-13T21:08:36.277Z,35.42
2022-12-13T21:12:53.340Z,37.22
2022-12-13T21:17:12.107Z,32.13
2022-12-13T21:21:30.506Z,33.40
2022-12-13T21:30:06.107Z,35.92
2022-12-13T21:34:23.118Z,39.05
2022-12-13T21:38:40.928Z,50.63
2022-12-13T21:42:57.987Z,36.92
2022-12-13T21:47:15.142Z,38.65
2022-12-13T21:51:31.978Z,36.75
2022-12-13T21:55:49.040Z,35.03
2022-12-13T22:00:07.021Z,39.85
2022-12-13T22:04:24.208Z,38.97
2022-12-13T22:08:41.099Z,47.35
2022-12-13T22:12:58.253Z,52.45
2022-12-13T22:17:15.133Z,45.25
2022-12-13T22:21:32.475Z,59.40
2022-12-13T22:25:49.478Z,59.85
2022-12-13T22:30:07.646Z,66.65
2022-12-13T22:34:24.525Z,76.15
2022-12-13T22:38:41.578Z,73.57
2022-12-13T22:42:58.468Z,64.60
2022-12-13T22:47:15.773Z,64.68
2022-12-13T22:51:32.635Z,60.58
2022-12-13T22:55:49.736Z,70.65
2022-12-13T23:00:10.417Z,82.65
2022-12-13T23:04:27.520Z,98.70
2022-12-13T23:08:49.076Z,107.82
2022-12-13T23:13:06.123Z,138.13
2022-12-13T23:17:22.997Z,116.55
2022-12-13T23:21:41.512Z,123.13
2022-12-13T23:26:29.895Z,117.20
2022-12-13T23:30:47.113Z,106.03
2022-12-13T23:35:04.149Z,110.22
2022-12-13T23:39:21.236Z,93.03
2022-12-13T23:43:39.993Z,94.80
2022-12-13T23:47:57.187Z,119.50
2022-12-13T23:52:14.213Z,132.55
2022-12-13T23:56:31.301Z,73.50
